createdAt,value
2022-08-08T01:32:40.667Z,65.09
2022-08-08T01:34:13.605Z,65.09
2022-08-08T01:35:44.583Z,64.99
2022-08-08T01:36:58.540Z,64.83
2022-08-08T01:38:05.178Z,64.83
2022-08-08T01:39:42.950Z,64.87
2022-08-08T01:40:48.280Z,64.92
2022-08-08T01:41:52.551Z,65.02
2022-08-08T01:43:14.110Z,65.09
2022-08-08T01:44:50.341Z,65.08
2022-08-08T01:46:02.914Z,65.09
2022-08-08T01:48:14.692Z,65.03
2022-08-08T01:48:56.140Z,64.95
2022-08-08T01:50:06.937Z,64.89
2022-08-08T01:52:41.049Z,64.99
2022-08-08T01:54:18.628Z,64.90
2022-08-08T01:55:46.331Z,65.06
2022-08-08T01:56:28.865Z,65.15
2022-08-08T01:57:25.983Z,65.30
2022-08-08T01:58:57.584Z,65.47
2022-08-08T02:00:20.199Z,65.66
2022-08-08T02:01:59.571Z,65.65
2022-08-08T02:03:56.090Z,65.59
2022-08-08T02:04:43.493Z,65.65
2022-08-08T02:05:56.618Z,65.33
2022-08-08T02:07:22.746Z,65.34
2022-08-08T02:08:48.371Z,65.18
2022-08-08T02:10:04.406Z,64.59
2022-08-08T02:11:52.538Z,64.74
2022-08-08T02:12:53.470Z,64.67
2022-08-08T02:14:03.429Z,64.18
2022-08-08T02:15:21.270Z,64.54
2022-08-08T02:16:34.569Z,64.54
2022-08-08T02:17:53.981Z,64.57
2022-08-08T02:19:00.898Z,64.56
2022-08-08T02:21:01.782Z,64.54
2022-08-08T02:22:33.076Z,64.54
2022-08-08T02:24:02.353Z,64.48
2022-08-08T02:25:33.092Z,64.42
2022-08-08T02:27:01.072Z,64.27
2022-08-08T02:28:13.491Z,64.24
2022-08-08T02:29:25.223Z,64.18
2022-08-08T02:30:34.574Z,64.06
2022-08-08T02:32:04.979Z,63.96
2022-08-08T02:33:10.966Z,63.89
2022-08-08T02:34:39.623Z,63.90
2022-08-08T02:36:12.659Z,63.95
2022-08-08T02:37:52.966Z,64.05
2022-08-08T02:39:01.111Z,64.10
2022-08-08T02:40:28.126Z,64.05
2022-08-08T02:42:10.535Z,63.89
2022-08-08T02:44:37.276Z,63.68
2022-08-08T02:44:57.489Z,63.58
2022-08-08T02:46:02.805Z,63.61
2022-08-08T02:47:24.014Z,63.69
2022-08-08T02:48:42.763Z,63.77
2022-08-08T02:49:51.966Z,63.87
2022-08-08T02:51:29.847Z,63.91
2022-08-08T02:52:51.074Z,63.98
2022-08-08T02:54:13.283Z,64.03
2022-08-08T02:55:37.290Z,64.04
2022-08-08T02:57:00.103Z,64.07
2022-08-08T02:58:15.280Z,64.10
2022-08-08T02:59:37.207Z,64.14
2022-08-08T03:01:19.442Z,64.15
2022-08-08T03:02:30.386Z,63.91
2022-08-08T03:05:04.106Z,64.25
2022-08-08T03:05:14.794Z,64.38
2022-08-08T03:06:43.860Z,64.43
2022-08-08T03:08:05.908Z,64.32
2022-08-08T03:09:20.126Z,64.34
2022-08-08T03:10:44.318Z,64.36
2022-08-08T03:12:01.674Z,64.30
2022-08-08T03:15:54.075Z,64.35
2022-08-08T03:15:58.742Z,64.43
2022-08-08T03:16:07.132Z,64.44
2022-08-08T03:17:10.337Z,64.48
2022-08-08T03:18:31.186Z,64.50
2022-08-08T03:20:00.172Z,64.53
2022-08-08T03:21:09.742Z,64.55
2022-08-08T03:22:38.341Z,64.52
2022-08-08T03:23:56.571Z,64.45
2022-08-08T03:25:04.883Z,64.49
2022-08-08T03:26:23.035Z,64.52
2022-08-08T03:27:46.848Z,64.51
2022-08-08T03:28:53.835Z,64.56
2022-08-08T03:30:02.001Z,64.60
2022-08-08T03:31:25.893Z,64.59
2022-08-08T03:32:58.633Z,64.59
2022-08-08T03:34:07.590Z,64.55
2022-08-08T03:35:17.842Z,64.24
2022-08-08T03:36:27.386Z,64.39
2022-08-08T03:37:59.653Z,64.41
2022-08-08T03:39:07.705Z,64.45
2022-08-08T03:40:29.768Z,64.42
2022-08-08T03:42:28.063Z,64.44
2022-08-08T03:43:18.074Z,64.50
2022-08-08T03:44:30.535Z,64.41
2022-08-08T03:46:03.006Z,64.46
2022-08-08T03:47:07.025Z,64.48
2022-08-08T03:48:21.209Z,64.47
2022-08-08T03:50:00.308Z,64.58
2022-08-08T03:51:07.573Z,63.81
2022-08-08T03:52:12.982Z,64.22
2022-08-08T03:53:37.886Z,64.20
2022-08-08T03:55:02.119Z,64.32
2022-08-08T03:56:09.728Z,64.56
2022-08-08T03:58:31.498Z,64.65
2022-08-08T03:58:38.409Z,64.72
2022-08-08T04:00:02.632Z,64.65
2022-08-08T04:01:24.016Z,64.68
2022-08-08T04:02:36.837Z,64.66
2022-08-08T04:03:58.983Z,64.35
2022-08-08T04:05:10.262Z,63.95
2022-08-08T04:06:16.554Z,63.72
2022-08-08T04:07:21.172Z,63.64
2022-08-08T04:08:32.851Z,63.69
2022-08-08T04:09:59.156Z,63.75
2022-08-08T04:11:11.497Z,63.77
2022-08-08T04:12:20.958Z,63.80
2022-08-08T04:13:26.081Z,63.83
2022-08-08T04:14:35.718Z,63.71
2022-08-08T04:15:40.211Z,63.62
2022-08-08T04:17:04.342Z,63.53
2022-08-08T04:18:16.614Z,63.50
2022-08-08T04:19:23.324Z,63.49
2022-08-08T04:20:30.031Z,63.44
2022-08-08T04:21:38.019Z,63.36
2022-08-08T04:22:44.572Z,63.34
2022-08-08T04:24:11.883Z,63.32
2022-08-08T04:25:17.478Z,62.81
2022-08-08T04:26:20.653Z,63.27
2022-08-08T04:28:02.194Z,62.12
2022-08-08T04:28:54.631Z,61.00
2022-08-08T04:30:00.740Z,61.24
2022-08-08T04:31:58.173Z,62.12
2022-08-08T04:32:47.881Z,62.46
2022-08-08T04:33:51.324Z,61.91
2022-08-08T04:34:58.496Z,62.57
2022-08-08T04:36:05.151Z,62.85
2022-08-08T04:37:10.287Z,62.11
2022-08-08T04:38:21.445Z,60.62
2022-08-08T04:40:04.419Z,61.32
2022-08-08T04:40:53.760Z,60.69
2022-08-08T04:41:58.243Z,60.36
2022-08-08T04:43:01.630Z,60.81
2022-08-08T04:44:11.321Z,60.17
2022-08-08T04:45:15.947Z,60.76
2022-08-08T04:46:18.941Z,61.57
2022-08-08T04:47:24.394Z,61.68
2022-08-08T04:48:27.920Z,61.67
2022-08-08T04:49:59.089Z,61.47
2022-08-08T04:50:57.754Z,61.64
2022-08-08T04:52:05.235Z,61.88
2022-08-08T04:53:52.674Z,62.07
2022-08-08T04:54:39.590Z,62.37
2022-08-08T04:55:47.379Z,62.43
2022-08-08T04:56:58.328Z,61.76
2022-08-08T04:58:01.363Z,60.41
2022-08-08T04:59:04.656Z,61.22
2022-08-08T05:00:10.193Z,61.68
2022-08-08T05:01:13.578Z,61.79
2022-08-08T05:02:28.626Z,61.98
2022-08-08T05:04:10.927Z,61.97
2022-08-08T05:04:59.375Z,61.34
2022-08-08T05:06:13.597Z,61.35
2022-08-08T05:07:21.658Z,60.87
2022-08-08T05:08:26.955Z,61.21
2022-08-08T05:09:32.205Z,60.59
2022-08-08T05:10:39.791Z,60.80
2022-08-08T05:11:42.766Z,60.96
2022-08-08T05:13:01.581Z,61.30
2022-08-08T05:14:07.343Z,61.44
2022-08-08T05:15:13.653Z,61.45
2022-08-08T05:16:53.078Z,61.18
2022-08-08T05:17:54.603Z,60.75
2022-08-08T05:18:59.300Z,61.12
2022-08-08T05:20:09.194Z,61.13
2022-08-08T05:21:19.448Z,60.78
2022-08-08T05:22:25.213Z,60.45
2022-08-08T05:23:30.107Z,60.07
2022-08-08T05:24:48.729Z,59.97
2022-08-08T05:26:00.181Z,59.72
2022-08-08T05:27:04.062Z,59.50
2022-08-08T05:28:07.712Z,59.59
2022-08-08T05:29:11.278Z,59.75
2022-08-08T05:30:15.354Z,59.87
2022-08-08T05:32:03.847Z,59.49
2022-08-08T05:32:45.886Z,58.69
2022-08-08T05:33:51.735Z,58.09
2022-08-08T05:34:57.818Z,57.54
2022-08-08T05:36:02.890Z,57.07
2022-08-08T05:37:18.571Z,56.98
2022-08-08T05:38:31.334Z,57.88
2022-08-08T05:39:51.241Z,57.36
2022-08-08T05:40:58.375Z,57.54
2022-08-08T05:42:03.861Z,58.19
2022-08-08T05:43:40.204Z,58.41
2022-08-08T05:44:44.795Z,58.86
2022-08-08T05:45:53.343Z,58.51
2022-08-08T05:47:03.008Z,58.85
2022-08-08T05:48:08.202Z,59.55
2022-08-08T05:49:13.780Z,59.89
2022-08-08T05:50:19.476Z,59.11
2022-08-08T05:51:22.912Z,59.01
2022-08-08T05:52:35.530Z,59.22
2022-08-08T05:54:24.857Z,59.91
2022-08-08T05:55:08.965Z,59.63
2022-08-08T05:56:15.411Z,60.25
2022-08-08T05:58:04.011Z,60.41
2022-08-08T05:58:57.045Z,60.01
2022-08-08T06:00:23.146Z,59.60
2022-08-08T06:01:56.223Z,59.78
2022-08-08T06:03:17.132Z,60.93
2022-08-08T06:04:26.576Z,59.96
2022-08-08T06:05:36.429Z,60.18
2022-08-08T06:06:48.108Z,60.52
2022-08-08T06:08:02.562Z,61.61
2022-08-08T06:09:41.886Z,61.09
2022-08-08T06:10:33.542Z,60.56
2022-08-08T06:11:46.159Z,60.78
2022-08-08T06:12:50.852Z,61.12
2022-08-08T06:13:54.214Z,61.35
2022-08-08T06:14:59.912Z,60.92
2022-08-08T06:16:03.031Z,60.96
2022-08-08T06:17:32.152Z,61.41
2022-08-08T06:18:47.511Z,60.87
2022-08-08T06:19:55.212Z,61.00
2022-08-08T06:20:59.575Z,60.89
2022-08-08T06:23:52.709Z,60.67
2022-08-08T06:25:01.509Z,60.36
2022-08-08T06:26:38.518Z,60.13
2022-08-08T06:27:32.346Z,60.03
2022-08-08T06:28:41.747Z,59.85
2022-08-08T06:29:59.888Z,59.79
2022-08-08T06:31:05.029Z,59.97
2022-08-08T06:32:17.298Z,60.12
2022-08-08T06:33:36.654Z,59.86
2022-08-08T06:35:12.157Z,60.20
2022-08-08T06:36:30.888Z,60.03
2022-08-08T06:37:37.515Z,59.73
2022-08-08T06:38:47.243Z,59.64
2022-08-08T06:39:56.743Z,59.61
2022-08-08T06:41:13.414Z,59.52
2022-08-08T06:42:18.839Z,59.66
2022-08-08T06:43:28.499Z,60.59
2022-08-08T06:44:42.578Z,60.74
2022-08-08T06:45:48.177Z,60.14
2022-08-08T06:46:52.430Z,60.02
2022-08-08T06:48:01.529Z,60.19
2022-08-08T06:49:07.571Z,60.49
2022-08-08T06:50:17.715Z,60.35
2022-08-08T06:51:47.177Z,60.49
2022-08-08T06:53:10.160Z,60.09
2022-08-08T06:54:22.535Z,59.93
2022-08-08T06:55:26.857Z,60.55
2022-08-08T06:56:31.213Z,60.75
2022-08-08T06:57:54.714Z,60.57
2022-08-08T06:59:00.506Z,60.70
2022-08-08T07:00:10.098Z,60.68
2022-08-08T07:02:17.967Z,60.36
2022-08-08T07:02:45.180Z,60.20
2022-08-08T07:04:35.588Z,59.98
2022-08-08T07:05:20.583Z,59.56
2022-08-08T07:06:29.929Z,59.26
2022-08-08T07:08:05.802Z,59.07
2022-08-08T07:09:17.849Z,59.45
2022-08-08T07:10:25.284Z,59.93
2022-08-08T07:11:50.671Z,60.03
2022-08-08T07:13:04.922Z,60.12
2022-08-08T07:14:19.263Z,60.15
2022-08-08T07:15:41.204Z,60.00
2022-08-08T07:16:54.573Z,60.08
2022-08-08T07:18:36.041Z,60.01
2022-08-08T07:19:37.221Z,60.12
2022-08-08T07:20:50.644Z,59.84
2022-08-08T07:22:05.083Z,59.61
2022-08-08T07:23:23.517Z,59.41
2022-08-08T07:24:34.643Z,59.57
2022-08-08T07:25:40.236Z,59.47
2022-08-08T07:26:59.147Z,59.34
2022-08-08T07:28:19.772Z,59.57
2022-08-08T07:29:59.096Z,59.47
2022-08-08T07:30:47.349Z,59.30
2022-08-08T07:31:52.526Z,59.26
2022-08-08T07:32:59.414Z,59.20
2022-08-08T07:34:08.649Z,58.99
2022-08-08T07:35:14.052Z,59.08
2022-08-08T07:36:22.228Z,58.91
2022-08-08T07:37:28.465Z,58.81
2022-08-08T07:38:53.369Z,58.82
2022-08-08T07:39:59.726Z,58.79
2022-08-08T07:41:05.121Z,58.80
2022-08-08T07:42:12.622Z,58.75
2022-08-08T07:43:16.828Z,58.68
2022-08-08T07:44:40.783Z,58.65
2022-08-08T07:46:05.737Z,58.61
2022-08-08T07:47:10.785Z,58.53
2022-08-08T07:48:13.840Z,58.67
2022-08-08T07:49:16.966Z,58.58
2022-08-08T07:50:22.127Z,58.41
2022-08-08T07:51:44.407Z,58.34
2022-08-08T07:52:51.426Z,57.95
2022-08-08T07:54:15.824Z,57.86
2022-08-08T07:55:30.138Z,58.24
2022-08-08T07:57:01.993Z,58.18
2022-08-08T07:58:12.788Z,58.05
2022-08-08T07:59:19.496Z,57.87
2022-08-08T08:00:30.145Z,57.64
2022-08-08T08:02:35.104Z,56.33
2022-08-08T08:03:12.381Z,56.54
2022-08-08T08:04:23.782Z,57.46
2022-08-08T08:05:33.653Z,57.43
2022-08-08T08:06:38.642Z,57.23
2022-08-08T08:07:52.955Z,56.80
2022-08-08T08:09:06.994Z,56.99
2022-08-08T08:10:12.654Z,57.37
2022-08-08T08:11:20.872Z,57.32
2022-08-08T08:12:35.718Z,57.15
2022-08-08T08:14:08.014Z,57.07
2022-08-08T08:15:18.535Z,55.87
2022-08-08T08:16:32.202Z,56.21
2022-08-08T08:17:48.872Z,56.01
2022-08-08T08:18:56.739Z,56.07
2022-08-08T08:20:04.741Z,56.03
2022-08-08T08:21:14.546Z,55.83
2022-08-08T08:22:25.486Z,55.51
2022-08-08T08:23:40.606Z,55.73
2022-08-08T08:24:46.941Z,55.71
2022-08-08T08:25:51.178Z,55.55
2022-08-08T08:26:58.657Z,54.88
2022-08-08T08:28:03.066Z,54.73
2022-08-08T08:29:06.783Z,54.15
2022-08-08T08:30:10.414Z,54.17
2022-08-08T08:31:13.952Z,54.53
2022-08-08T08:32:35.805Z,54.55
2022-08-08T08:33:46.263Z,54.67
2022-08-08T08:34:55.914Z,53.83
2022-08-08T08:36:19.627Z,54.39
2022-08-08T08:37:27.106Z,54.58
2022-08-08T08:38:33.590Z,54.45
2022-08-08T08:40:01.955Z,54.22
2022-08-08T08:41:06.105Z,53.98
2022-08-08T08:42:19.439Z,53.97
2022-08-08T08:43:35.971Z,53.98
2022-08-08T08:44:46.012Z,54.02
2022-08-08T08:45:49.708Z,53.77
2022-08-08T08:47:02.821Z,53.72
2022-08-08T08:48:10.392Z,53.82
2022-08-08T08:49:19.603Z,54.01
2022-08-08T08:50:33.440Z,53.59
2022-08-08T08:51:51.475Z,53.28
2022-08-08T08:52:59.924Z,52.69
2022-08-08T08:54:03.549Z,52.45
2022-08-08T08:55:12.242Z,52.62
2022-08-08T08:56:23.729Z,52.60
2022-08-08T08:57:34.519Z,52.34
2022-08-08T08:58:46.747Z,52.64
2022-08-08T09:00:04.706Z,52.40
2022-08-08T09:01:14.633Z,51.74
2022-08-08T09:02:21.811Z,51.65
2022-08-08T09:03:31.423Z,51.59
2022-08-08T09:04:52.642Z,51.43
2022-08-08T09:05:56.772Z,51.28
2022-08-08T09:07:02.305Z,51.07
2022-08-08T09:08:20.564Z,50.97
2022-08-08T09:09:39.882Z,50.80
2022-08-08T09:10:51.559Z,50.26
2022-08-08T09:12:06.185Z,50.44
2022-08-08T09:13:13.672Z,50.34
2022-08-08T09:14:25.978Z,50.80
2022-08-08T09:15:37.568Z,51.10
2022-08-08T09:16:47.771Z,51.26
2022-08-08T09:17:55.793Z,51.15
2022-08-08T09:19:00.984Z,51.35
2022-08-08T09:21:59.699Z,50.79
2022-08-08T09:22:02.441Z,50.54
2022-08-08T09:22:58.654Z,50.97
2022-08-08T09:24:04.077Z,50.74
2022-08-08T09:25:10.347Z,50.94
2022-08-08T09:26:14.443Z,51.25
2022-08-08T09:27:20.291Z,51.37
2022-08-08T09:28:37.206Z,51.41
2022-08-08T09:30:03.236Z,51.51
2022-08-08T09:31:12.701Z,51.37
2022-08-08T09:32:19.434Z,51.43
2022-08-08T09:34:06.218Z,51.11
2022-08-08T09:34:50.818Z,51.12
2022-08-08T09:35:55.094Z,51.10
2022-08-08T09:37:57.520Z,50.71
2022-08-08T09:38:31.975Z,50.39
2022-08-08T09:39:42.773Z,50.27
2022-08-08T09:40:55.602Z,50.98
2022-08-08T09:42:20.034Z,50.87
2022-08-08T09:44:04.763Z,50.87
2022-08-08T09:45:15.562Z,50.88
2022-08-08T09:46:25.665Z,50.97
2022-08-08T09:48:05.041Z,50.89
2022-08-08T09:49:04.322Z,50.59
2022-08-08T09:50:23.642Z,50.47
2022-08-08T09:51:30.202Z,50.57
2022-08-08T09:52:56.494Z,50.37
2022-08-08T09:54:08.413Z,49.56
2022-08-08T09:56:03.101Z,49.62
2022-08-08T09:56:45.350Z,49.93
2022-08-08T09:57:55.653Z,49.92
2022-08-08T09:59:32.129Z,49.97
2022-08-08T10:00:49.779Z,50.03
2022-08-08T10:02:00.299Z,49.95
2022-08-08T10:03:06.137Z,50.07
2022-08-08T10:04:14.680Z,50.24
2022-08-08T10:05:39.802Z,49.47
2022-08-08T10:06:53.017Z,49.90
2022-08-08T10:08:00.008Z,49.89
2022-08-08T10:09:04.190Z,49.73
2022-08-08T10:10:07.603Z,49.45
2022-08-08T10:12:22.395Z,49.25
2022-08-08T10:12:53.262Z,49.34
2022-08-08T10:14:00.987Z,49.49
2022-08-08T10:15:17.449Z,49.08
2022-08-08T10:16:22.421Z,48.93
2022-08-08T10:17:38.769Z,48.89
2022-08-08T10:19:02.579Z,49.00
2022-08-08T10:20:06.442Z,49.20
2022-08-08T10:21:25.162Z,49.21
2022-08-08T10:22:32.017Z,49.22
2022-08-08T10:23:43.352Z,49.37
2022-08-08T10:24:49.624Z,49.31
2022-08-08T10:25:57.188Z,49.21
2022-08-08T10:27:06.974Z,49.30
2022-08-08T10:28:21.682Z,49.37
2022-08-08T10:29:56.893Z,49.57
2022-08-08T10:31:01.888Z,49.52
2022-08-08T10:32:26.935Z,49.27
2022-08-08T10:33:38.568Z,49.45
2022-08-08T10:35:01.416Z,49.42
2022-08-08T10:36:09.181Z,49.84
2022-08-08T10:37:26.306Z,49.79
2022-08-08T10:38:32.161Z,49.48
2022-08-08T10:39:53.589Z,49.69
2022-08-08T10:40:59.931Z,49.61
2022-08-08T10:42:14.837Z,49.62
2022-08-08T10:43:20.169Z,49.61
2022-08-08T10:44:49.497Z,49.61
2022-08-08T10:45:56.738Z,49.28
2022-08-08T10:47:13.306Z,48.78
2022-08-08T10:48:16.468Z,48.39
2022-08-08T10:50:00.589Z,46.99
2022-08-08T10:50:43.470Z,46.92
2022-08-08T10:51:51.322Z,47.37
2022-08-08T10:53:00.788Z,47.50
2022-08-08T10:54:04.496Z,47.50
2022-08-08T10:55:13.778Z,47.01
2022-08-08T10:56:27.781Z,46.68
2022-08-08T10:57:50.421Z,47.04
2022-08-08T10:59:02.260Z,46.71
2022-08-08T11:00:05.866Z,47.12
2022-08-08T11:01:12.650Z,47.08
2022-08-08T11:02:29.111Z,46.99
2022-08-08T11:04:00.932Z,47.19
2022-08-08T11:05:15.010Z,45.23
2022-08-08T11:06:18.816Z,45.72
2022-08-08T11:08:30.277Z,45.17
2022-08-08T11:08:53.181Z,45.61
2022-08-08T11:10:00.802Z,46.06
2022-08-08T11:11:08.070Z,46.18
2022-08-08T11:12:13.823Z,46.52
2022-08-08T11:13:30.405Z,46.63
2022-08-08T11:14:35.310Z,46.77
2022-08-08T11:15:58.926Z,46.58
2022-08-08T11:17:01.183Z,46.75
2022-08-08T11:18:04.797Z,46.81
2022-08-08T11:19:10.570Z,46.92
2022-08-08T11:20:21.460Z,46.88
2022-08-08T11:21:35.192Z,46.88
2022-08-08T11:22:38.723Z,46.92
2022-08-08T11:23:42.567Z,46.33
2022-08-08T11:24:47.266Z,46.32
2022-08-08T11:25:52.600Z,46.33
2022-08-08T11:27:00.922Z,46.05
2022-08-08T11:28:13.927Z,45.92
2022-08-08T11:29:17.490Z,45.32
2022-08-08T11:30:24.912Z,45.23
2022-08-08T11:31:43.612Z,45.61
2022-08-08T11:33:12.423Z,44.60
2022-08-08T11:34:24.348Z,44.37
2022-08-08T11:35:43.552Z,45.22
2022-08-08T11:36:46.554Z,45.35
2022-08-08T11:38:39.323Z,44.92
2022-08-08T11:39:19.845Z,45.49
2022-08-08T11:40:26.560Z,45.28
2022-08-08T11:41:32.400Z,45.17
2022-08-08T11:42:37.543Z,45.19
2022-08-08T11:43:42.217Z,45.30
2022-08-08T11:44:45.953Z,44.77
2022-08-08T11:46:09.761Z,45.02
2022-08-08T11:47:17.055Z,45.01
2022-08-08T11:48:21.233Z,45.22
2022-08-08T11:49:31.033Z,45.34
2022-08-08T11:50:34.355Z,45.28
2022-08-08T11:51:49.577Z,44.96
2022-08-08T11:52:57.852Z,44.97
2022-08-08T11:54:04.123Z,44.94
2022-08-08T11:55:22.989Z,44.87
2022-08-08T11:56:26.027Z,44.80
2022-08-08T11:57:30.272Z,45.01
2022-08-08T11:58:38.330Z,45.14
2022-08-08T12:00:00.377Z,45.33
2022-08-08T12:01:16.386Z,44.64
2022-08-08T12:02:33.394Z,44.27
2022-08-08T12:03:42.951Z,45.08
2022-08-08T12:04:47.586Z,44.72
2022-08-08T12:05:51.409Z,45.13
2022-08-08T12:07:02.499Z,45.03
2022-08-08T12:08:06.984Z,44.98
2022-08-08T12:09:17.089Z,44.87
2022-08-08T12:10:23.805Z,44.94
2022-08-08T12:11:37.367Z,44.86
2022-08-08T12:12:41.781Z,45.29
2022-08-08T12:14:03.985Z,45.78
2022-08-08T12:15:09.476Z,46.41
2022-08-08T12:16:16.919Z,46.56
2022-08-08T12:17:31.420Z,46.88
2022-08-08T12:18:49.318Z,47.42
2022-08-08T12:19:56.600Z,48.22
2022-08-08T12:21:00.133Z,48.41
2022-08-08T12:22:09.464Z,48.82
2022-08-08T12:23:39.996Z,49.24
2022-08-08T12:24:51.411Z,49.39
2022-08-08T12:26:16.807Z,49.73
2022-08-08T12:27:20.701Z,49.93
2022-08-08T12:28:23.616Z,50.07
2022-08-08T12:29:40.933Z,50.30
2022-08-08T12:30:47.926Z,49.75
2022-08-08T12:32:03.378Z,49.70
2022-08-08T12:33:37.006Z,49.57
2022-08-08T12:34:41.391Z,49.51
2022-08-08T12:35:52.223Z,49.33
2022-08-08T12:37:02.984Z,49.20
2022-08-08T12:38:09.653Z,49.23
2022-08-08T12:40:00.601Z,49.28
2022-08-08T12:40:56.556Z,49.49
2022-08-08T12:42:04.628Z,49.91
2022-08-08T12:43:09.325Z,49.95
2022-08-08T12:44:14.807Z,49.76
2022-08-08T12:45:58.203Z,49.26
2022-08-08T12:47:01.108Z,49.07
2022-08-08T12:48:18.273Z,49.34
2022-08-08T12:49:43.921Z,49.12
2022-08-08T12:50:49.696Z,48.84
2022-08-08T12:51:58.616Z,46.93
2022-08-08T12:53:03.855Z,46.72
2022-08-08T12:54:24.627Z,46.52
2022-08-08T12:55:29.251Z,44.12
2022-08-08T12:56:52.254Z,45.69
2022-08-08T12:57:56.792Z,45.43
2022-08-08T12:59:00.356Z,44.40
2022-08-08T13:00:13.642Z,44.16
2022-08-08T13:01:24.223Z,42.40
2022-08-08T13:02:42.031Z,42.03
2022-08-08T13:03:54.337Z,42.62
2022-08-08T13:04:58.459Z,41.61
2022-08-08T13:06:06.704Z,39.24
2022-08-08T13:07:16.678Z,39.03
2022-08-08T13:08:22.018Z,39.70
2022-08-08T13:09:33.007Z,40.44
2022-08-08T13:10:46.191Z,39.79
2022-08-08T13:12:28.056Z,40.25
2022-08-08T13:13:29.486Z,41.08
2022-08-08T13:14:39.816Z,40.94
2022-08-08T13:16:16.830Z,41.10
2022-08-08T13:18:08.901Z,40.94
2022-08-08T13:18:56.926Z,39.37
2022-08-08T13:20:08.644Z,38.26
2022-08-08T13:21:16.346Z,38.92
2022-08-08T13:22:19.383Z,38.24
2022-08-08T13:23:30.925Z,35.89
2022-08-08T13:24:48.082Z,37.24
2022-08-08T13:25:59.179Z,37.65
2022-08-08T13:27:06.464Z,37.54
2022-08-08T13:28:14.625Z,36.54
2022-08-08T13:29:22.902Z,36.91
2022-08-08T13:30:28.510Z,37.02
2022-08-08T13:31:31.579Z,37.55
2022-08-08T13:32:35.991Z,37.11
2022-08-08T13:33:42.775Z,37.83
2022-08-08T13:34:49.436Z,37.92
2022-08-08T13:35:56.200Z,38.00
2022-08-08T13:36:59.985Z,38.06
2022-08-08T13:38:06.525Z,37.92
2022-08-08T13:39:14.315Z,37.76
2022-08-08T13:40:26.721Z,38.22
2022-08-08T13:41:37.663Z,37.43
2022-08-08T13:42:43.311Z,38.77
2022-08-08T13:43:49.821Z,38.06
2022-08-08T13:44:55.551Z,38.61
2022-08-08T13:46:26.946Z,38.20
2022-08-08T13:47:32.185Z,36.30
2022-08-08T13:48:43.962Z,36.61
2022-08-08T13:50:37.205Z,36.62
2022-08-08T13:51:24.863Z,37.32
2022-08-08T13:52:47.225Z,36.23
2022-08-08T13:53:53.277Z,36.52
2022-08-08T13:55:05.262Z,36.81
2022-08-08T13:56:11.511Z,37.22
2022-08-08T13:57:16.229Z,37.15
2022-08-08T13:58:20.464Z,37.42
2022-08-08T13:59:32.773Z,37.44
2022-08-08T14:00:40.041Z,37.71
2022-08-08T14:01:57.991Z,37.84
2022-08-08T14:03:19.914Z,38.34
2022-08-08T14:04:28.607Z,38.61
2022-08-08T14:05:34.406Z,38.89
2022-08-08T14:06:44.454Z,39.01
2022-08-08T14:07:49.999Z,39.30
2022-08-08T14:08:57.062Z,39.60
2022-08-08T14:10:05.604Z,39.81
2022-08-08T14:11:15.703Z,40.31
2022-08-08T14:12:20.823Z,40.39
2022-08-08T14:13:33.193Z,40.87
2022-08-08T14:14:47.017Z,40.78
2022-08-08T14:16:01.012Z,41.11
2022-08-08T14:17:04.880Z,42.73
2022-08-08T14:18:34.561Z,41.75
2022-08-08T14:19:57.755Z,42.44
2022-08-08T14:21:08.219Z,43.26
2022-08-08T14:22:18.661Z,42.55
2022-08-08T14:24:07.709Z,42.31
2022-08-08T14:25:17.575Z,42.55
2022-08-08T14:26:22.049Z,42.85
2022-08-08T14:27:33.278Z,43.12
2022-08-08T14:28:39.702Z,43.35
2022-08-08T14:29:52.571Z,43.73
2022-08-08T14:31:07.755Z,43.47
2022-08-08T14:32:20.307Z,43.90
2022-08-08T14:33:34.041Z,44.45
2022-08-08T14:34:39.516Z,44.34
2022-08-08T14:35:49.621Z,45.00
2022-08-08T14:36:56.650Z,46.37
2022-08-08T14:38:09.378Z,45.34
2022-08-08T14:39:48.015Z,44.90
2022-08-08T14:40:51.636Z,44.75
2022-08-08T14:41:59.431Z,45.16
2022-08-08T14:43:22.259Z,45.20
2022-08-08T14:44:35.196Z,45.34
2022-08-08T14:46:02.626Z,45.51
2022-08-08T14:47:01.573Z,45.63
2022-08-08T14:48:04.983Z,45.60
2022-08-08T14:49:20.458Z,45.52
2022-08-08T14:50:38.101Z,45.72
2022-08-08T14:51:51.724Z,46.67
2022-08-08T14:53:13.299Z,47.80
2022-08-08T14:54:28.882Z,47.72
2022-08-08T14:55:41.839Z,46.90
2022-08-08T14:56:45.681Z,46.68
2022-08-08T14:58:06.541Z,46.74
2022-08-08T14:59:22.270Z,46.77
2022-08-08T15:00:34.898Z,47.97
2022-08-08T15:01:41.296Z,47.96
2022-08-08T15:02:59.013Z,48.00
2022-08-08T15:04:11.444Z,48.11
2022-08-08T15:05:16.617Z,48.12
2022-08-08T15:06:25.630Z,49.39
2022-08-08T15:07:39.355Z,49.38
2022-08-08T15:08:53.050Z,48.29
2022-08-08T15:09:58.357Z,47.85
2022-08-08T15:11:01.607Z,47.76
2022-08-08T15:12:07.601Z,48.01
2022-08-08T15:13:13.571Z,48.52
2022-08-08T15:14:17.003Z,49.35
2022-08-08T15:16:01.364Z,49.47
2022-08-08T15:16:46.626Z,48.75
2022-08-08T15:17:51.279Z,48.20
2022-08-08T15:18:54.171Z,48.07
2022-08-08T15:19:57.505Z,47.79
2022-08-08T15:21:00.982Z,47.50
2022-08-08T15:22:03.893Z,47.24
2022-08-08T15:23:07.307Z,46.79
2022-08-08T15:24:14.231Z,46.64
2022-08-08T15:25:29.158Z,46.57
2022-08-08T15:26:35.976Z,46.37
2022-08-08T15:28:04.884Z,46.32
2022-08-08T15:29:04.046Z,46.11
2022-08-08T15:30:12.685Z,46.11
2022-08-08T15:31:55.696Z,45.90
2022-08-08T15:32:41.047Z,45.86
2022-08-08T15:33:59.889Z,45.89
2022-08-08T15:35:04.330Z,45.95
2022-08-08T15:36:08.820Z,46.00
2022-08-08T15:37:12.899Z,45.98
2022-08-08T15:38:17.395Z,46.05
2022-08-08T15:39:22.156Z,46.03
2022-08-08T15:40:28.384Z,46.20
2022-08-08T15:41:43.871Z,46.46
2022-08-08T15:42:49.496Z,46.21
2022-08-08T15:44:01.300Z,46.28
2022-08-08T15:45:05.348Z,46.30
2022-08-08T15:46:08.367Z,46.21
2022-08-08T15:47:16.025Z,46.23
2022-08-08T15:48:23.151Z,46.55
2022-08-08T15:49:29.326Z,46.50
2022-08-08T15:50:52.764Z,46.40
2022-08-08T15:51:55.797Z,46.74
2022-08-08T15:52:58.817Z,46.51
2022-08-08T15:54:01.955Z,46.31
2022-08-08T15:55:06.677Z,46.33
2022-08-08T15:56:12.855Z,46.39
2022-08-08T15:57:16.452Z,46.52
2022-08-08T15:58:21.765Z,46.58
2022-08-08T16:00:06.436Z,46.67
2022-08-08T16:00:54.694Z,46.63
2022-08-08T16:02:00.239Z,46.60
2022-08-08T16:03:04.048Z,46.76
2022-08-08T16:04:07.062Z,46.79
2022-08-08T16:05:16.626Z,46.88
2022-08-08T16:06:27.787Z,46.92
2022-08-08T16:07:39.552Z,47.04
2022-08-08T16:09:02.496Z,47.42
2022-08-08T16:13:05.149Z,47.47
2022-08-08T16:13:20.910Z,47.33
2022-08-08T16:13:27.906Z,47.60
2022-08-08T16:14:32.517Z,48.30
2022-08-08T16:15:35.966Z,48.73
2022-08-08T16:17:08.051Z,48.14
2022-08-08T16:18:11.937Z,48.23
2022-08-08T16:19:18.352Z,48.30
2022-08-08T16:20:29.387Z,48.29
2022-08-08T16:21:33.421Z,48.49
2022-08-08T16:22:36.958Z,48.71
2022-08-08T16:23:40.072Z,48.59
2022-08-08T16:24:45.016Z,48.63
2022-08-08T16:25:54.568Z,49.30
2022-08-08T16:27:02.153Z,49.35
2022-08-08T16:28:05.087Z,49.26
2022-08-08T16:29:37.267Z,49.12
2022-08-08T16:30:41.042Z,49.19
2022-08-08T16:31:49.230Z,49.62
2022-08-08T16:32:53.575Z,49.54
2022-08-08T16:33:59.447Z,49.33
2022-08-08T16:35:03.281Z,49.31
2022-08-08T16:36:08.732Z,49.67
2022-08-08T16:37:12.411Z,49.53
2022-08-08T16:38:26.312Z,49.72
2022-08-08T16:39:59.898Z,49.83
2022-08-08T16:40:57.753Z,50.79
2022-08-08T16:42:05.004Z,50.56
2022-08-08T16:43:08.749Z,50.43
2022-08-08T16:44:12.925Z,51.14
2022-08-08T16:46:44.787Z,51.15
2022-08-08T16:46:45.908Z,50.76
2022-08-08T16:47:49.551Z,50.56
2022-08-08T16:48:53.047Z,50.80
2022-08-08T16:49:59.907Z,50.59
2022-08-08T16:51:04.566Z,50.55
2022-08-08T16:55:01.833Z,50.86
2022-08-08T16:55:06.176Z,50.96
2022-08-08T16:55:34.327Z,50.76
2022-08-08T16:56:21.150Z,51.53
2022-08-08T16:58:13.929Z,51.21
2022-08-08T16:58:49.462Z,51.99
2022-08-08T16:59:53.808Z,51.40
2022-08-08T17:00:59.267Z,51.44
2022-08-08T17:02:03.367Z,51.26
2022-08-08T17:03:06.740Z,51.44
2022-08-08T17:04:09.769Z,51.26
2022-08-08T17:05:14.874Z,51.71
2022-08-08T17:06:36.282Z,52.04
2022-08-08T17:07:41.878Z,52.48
2022-08-08T17:08:45.255Z,52.26
2022-08-08T17:09:52.185Z,52.35
2022-08-08T17:10:59.453Z,52.03
2022-08-08T17:12:21.548Z,52.10
2022-08-08T17:13:41.128Z,51.96